sensor_id;sensor_type;location;lat;lon;timestamp;P1;durP1;ratioP1;P2;durP2;ratioP2
56770;SDS011;42641;59.794;17.616;2024-01-25T00:01:55;1.67;;;1.57;;
56770;SDS011;42641;59.794;17.616;2024-01-25T00:04:21;1.53;;;1.43;;
56770;SDS011;42641;59.794;17.616;2024-01-25T00:06:48;1.73;;;1.63;;
56770;SDS011;42641;59.794;17.616;2024-01-25T00:09:14;1.70;;;1.60;;
56770;SDS011;42641;59.794;17.616;2024-01-25T00:11:40;1.77;;;1.50;;
56770;SDS011;42641;59.794;17.616;2024-01-25T00:14:08;1.90;;;1.60;;
56770;SDS011;42641;59.794;17.616;2024-01-25T00:16:34;2.53;;;2.00;;
56770;SDS011;42641;59.794;17.616;2024-01-25T00:19:01;2.03;;;1.83;;
56770;SDS011;42641;59.794;17.616;2024-01-25T00:21:27;2.90;;;1.80;;
56770;SDS011;42641;59.794;17.616;2024-01-25T00:23:53;2.23;;;1.60;;
56770;SDS011;42641;59.794;17.616;2024-01-25T00:26:20;1.90;;;1.70;;
56770;SDS011;42641;59.794;17.616;2024-01-25T00:28:46;1.50;;;1.40;;
56770;SDS011;42641;59.794;17.616;2024-01-25T00:31:13;1.63;;;1.50;;
56770;SDS011;42641;59.794;17.616;2024-01-25T00:33:39;2.53;;;1.50;;
56770;SDS011;42641;59.794;17.616;2024-01-25T00:36:06;1.80;;;1.70;;
56770;SDS011;42641;59.794;17.616;2024-01-25T00:38:33;1.80;;;1.60;;
56770;SDS011;42641;59.794;17.616;2024-01-25T00:40:59;2.53;;;1.80;;
56770;SDS011;42641;59.794;17.616;2024-01-25T00:43:26;2.13;;;1.90;;
56770;SDS011;42641;59.794;17.616;2024-01-25T00:45:53;2.20;;;1.80;;
56770;SDS011;42641;59.794;17.616;2024-01-25T00:48:20;2.23;;;2.03;;
56770;SDS011;42641;59.794;17.616;2024-01-25T00:50:46;2.77;;;2.10;;
56770;SDS011;42641;59.794;17.616;2024-01-25T00:53:13;2.40;;;2.20;;
56770;SDS011;42641;59.794;17.616;2024-01-25T00:55:40;2.43;;;2.07;;
56770;SDS011;42641;59.794;17.616;2024-01-25T00:58:07;2.27;;;2.00;;
56770;SDS011;42641;59.794;17.616;2024-01-25T01:00:34;2.47;;;1.90;;
56770;SDS011;42641;59.794;17.616;2024-01-25T01:03:01;3.07;;;1.90;;
56770;SDS011;42641;59.794;17.616;2024-01-25T01:05:30;2.20;;;2.00;;
56770;SDS011;42641;59.794;17.616;2024-01-25T01:07:57;4.17;;;2.00;;
56770;SDS011;42641;59.794;17.616;2024-01-25T01:10:23;2.50;;;1.97;;
56770;SDS011;42641;59.794;17.616;2024-01-25T01:12:50;4.50;;;2.67;;
56770;SDS011;42641;59.794;17.616;2024-01-25T01:15:18;2.20;;;1.80;;
56770;SDS011;42641;59.794;17.616;2024-01-25T01:17:45;3.30;;;1.93;;
56770;SDS011;42641;59.794;17.616;2024-01-25T01:20:11;2.27;;;2.07;;
56770;SDS011;42641;59.794;17.616;2024-01-25T01:22:38;2.33;;;1.80;;
56770;SDS011;42641;59.794;17.616;2024-01-25T01:25:04;2.20;;;2.00;;
56770;SDS011;42641;59.794;17.616;2024-01-25T01:27:31;2.10;;;1.90;;
56770;SDS011;42641;59.794;17.616;2024-01-25T01:30:00;2.00;;;1.80;;
56770;SDS011;42641;59.794;17.616;2024-01-25T01:32:27;3.40;;;2.20;;
56770;SDS011;42641;59.794;17.616;2024-01-25T01:34:53;4.27;;;2.00;;
56770;SDS011;42641;59.794;17.616;2024-01-25T01:37:20;1.73;;;1.60;;
56770;SDS011;42641;59.794;17.616;2024-01-25T01:39:46;2.20;;;1.90;;
56770;SDS011;42641;59.794;17.616;2024-01-25T01:42:12;2.13;;;1.77;;
56770;SDS011;42641;59.794;17.616;2024-01-25T01:44:39;2.53;;;1.80;;
56770;SDS011;42641;59.794;17.616;2024-01-25T01:47:05;2.77;;;2.03;;
56770;SDS011;42641;59.794;17.616;2024-01-25T01:49:32;2.83;;;1.90;;
56770;SDS011;42641;59.794;17.616;2024-01-25T01:51:58;3.50;;;2.60;;
56770;SDS011;42641;59.794;17.616;2024-01-25T01:54:25;2.50;;;2.30;;
56770;SDS011;42641;59.794;17.616;2024-01-25T01:56:52;3.93;;;2.00;;
56770;SDS011;42641;59.794;17.616;2024-01-25T01:59:21;4.03;;;2.77;;
56770;SDS011;42641;59.794;17.616;2024-01-25T02:01:51;3.37;;;2.60;;
56770;SDS011;42641;59.794;17.616;2024-01-25T02:04:18;5.37;;;3.00;;
56770;SDS011;42641;59.794;17.616;2024-01-25T02:06:44;3.97;;;3.13;;
56770;SDS011;42641;59.794;17.616;2024-01-25T02:09:12;6.53;;;2.90;;
56770;SDS011;42641;59.794;17.616;2024-01-25T02:11:39;4.17;;;2.60;;
56770;SDS011;42641;59.794;17.616;2024-01-25T02:14:05;4.40;;;2.93;;
56770;SDS011;42641;59.794;17.616;2024-01-25T02:16:36;4.90;;;2.73;;
56770;SDS011;42641;59.794;17.616;2024-01-25T02:19:03;3.17;;;2.13;;
56770;SDS011;42641;59.794;17.616;2024-01-25T02:21:29;3.20;;;1.90;;
56770;SDS011;42641;59.794;17.616;2024-01-25T02:23:56;1.77;;;1.30;;
56770;SDS011;42641;59.794;17.616;2024-01-25T02:26:24;2.43;;;1.50;;
56770;SDS011;42641;59.794;17.616;2024-01-25T02:28:51;1.97;;;1.80;;
56770;SDS011;42641;59.794;17.616;2024-01-25T02:31:17;3.10;;;1.70;;
56770;SDS011;42641;59.794;17.616;2024-01-25T02:33:43;1.50;;;1.40;;
56770;SDS011;42641;59.794;17.616;2024-01-25T02:36:10;1.97;;;1.47;;
56770;SDS011;42641;59.794;17.616;2024-01-25T02:38:36;5.87;;;1.67;;
56770;SDS011;42641;59.794;17.616;2024-01-25T02:41:03;4.20;;;1.70;;
56770;SDS011;42641;59.794;17.616;2024-01-25T02:43:31;2.50;;;1.87;;
56770;SDS011;42641;59.794;17.616;2024-01-25T02:45:57;3.03;;;1.67;;
56770;SDS011;42641;59.794;17.616;2024-01-25T02:48:23;4.80;;;2.00;;
56770;SDS011;42641;59.794;17.616;2024-01-25T02:50:50;4.60;;;2.30;;
56770;SDS011;42641;59.794;17.616;2024-01-25T02:53:17;6.17;;;2.40;;
56770;SDS011;42641;59.794;17.616;2024-01-25T02:55:43;6.30;;;2.93;;
56770;SDS011;42641;59.794;17.616;2024-01-25T02:58:09;4.80;;;2.67;;
56770;SDS011;42641;59.794;17.616;2024-01-25T03:00:36;4.23;;;2.40;;
56770;SDS011;42641;59.794;17.616;2024-01-25T03:03:02;3.80;;;2.73;;
56770;SDS011;42641;59.794;17.616;2024-01-25T03:05:29;4.67;;;3.20;;
56770;SDS011;42641;59.794;17.616;2024-01-25T03:07:55;6.73;;;3.10;;
56770;SDS011;42641;59.794;17.616;2024-01-25T03:10:22;3.47;;;2.37;;
56770;SDS011;42641;59.794;17.616;2024-01-25T03:12:49;3.00;;;2.17;;
56770;SDS011;42641;59.794;17.616;2024-01-25T03:15:15;4.37;;;2.17;;
56770;SDS011;42641;59.794;17.616;2024-01-25T03:17:42;4.33;;;2.20;;
56770;SDS011;42641;59.794;17.616;2024-01-25T03:20:09;4.60;;;2.23;;
56770;SDS011;42641;59.794;17.616;2024-01-25T03:22:36;3.10;;;2.30;;
56770;SDS011;42641;59.794;17.616;2024-01-25T03:25:02;3.27;;;2.13;;
56770;SDS011;42641;59.794;17.616;2024-01-25T03:27:29;3.90;;;2.23;;
56770;SDS011;42641;59.794;17.616;2024-01-25T03:29:55;5.17;;;2.77;;
56770;SDS011;42641;59.794;17.616;2024-01-25T03:32:22;3.53;;;2.20;;
56770;SDS011;42641;59.794;17.616;2024-01-25T03:34:48;3.57;;;2.07;;
56770;SDS011;42641;59.794;17.616;2024-01-25T03:37:15;3.73;;;2.00;;
56770;SDS011;42641;59.794;17.616;2024-01-25T03:39:41;3.90;;;2.10;;
56770;SDS011;42641;59.794;17.616;2024-01-25T03:42:07;3.77;;;2.00;;
56770;SDS011;42641;59.794;17.616;2024-01-25T03:44:34;3.30;;;1.70;;
56770;SDS011;42641;59.794;17.616;2024-01-25T03:47:00;2.83;;;1.97;;
56770;SDS011;42641;59.794;17.616;2024-01-25T03:49:27;3.53;;;1.97;;
56770;SDS011;42641;59.794;17.616;2024-01-25T03:51:53;2.93;;;1.80;;
56770;SDS011;42641;59.794;17.616;2024-01-25T03:54:19;2.20;;;1.70;;
56770;SDS011;42641;59.794;17.616;2024-01-25T03:56:46;3.40;;;1.87;;
56770;SDS011;42641;59.794;17.616;2024-01-25T03:59:12;3.30;;;1.97;;
56770;SDS011;42641;59.794;17.616;2024-01-25T04:01:46;2.97;;;1.93;;
56770;SDS011;42641;59.794;17.616;2024-01-25T04:04:13;2.23;;;1.90;;
56770;SDS011;42641;59.794;17.616;2024-01-25T04:06:43;4.13;;;2.17;;
56770;SDS011;42641;59.794;17.616;2024-01-25T04:09:11;3.17;;;2.50;;
56770;SDS011;42641;59.794;17.616;2024-01-25T04:11:38;2.70;;;2.20;;
56770;SDS011;42641;59.794;17.616;2024-01-25T04:14:04;2.60;;;2.40;;
56770;SDS011;42641;59.794;17.616;2024-01-25T04:16:31;4.93;;;3.10;;
56770;SDS011;42641;59.794;17.616;2024-01-25T04:18:58;4.20;;;3.10;;
56770;SDS011;42641;59.794;17.616;2024-01-25T04:21:26;4.23;;;2.83;;
56770;SDS011;42641;59.794;17.616;2024-01-25T04:23:52;3.40;;;2.80;;
56770;SDS011;42641;59.794;17.616;2024-01-25T04:26:19;3.47;;;3.07;;
56770;SDS011;42641;59.794;17.616;2024-01-25T04:28:45;5.47;;;3.43;;
56770;SDS011;42641;59.794;17.616;2024-01-25T04:31:12;6.40;;;3.50;;
56770;SDS011;42641;59.794;17.616;2024-01-25T04:33:38;4.27;;;3.40;;
56770;SDS011;42641;59.794;17.616;2024-01-25T04:36:06;3.17;;;2.87;;
56770;SDS011;42641;59.794;17.616;2024-01-25T04:38:32;4.93;;;2.90;;
56770;SDS011;42641;59.794;17.616;2024-01-25T04:40:59;3.20;;;2.77;;
56770;SDS011;42641;59.794;17.616;2024-01-25T04:43:25;3.57;;;2.80;;
56770;SDS011;42641;59.794;17.616;2024-01-25T04:45:52;3.40;;;2.70;;
56770;SDS011;42641;59.794;17.616;2024-01-25T04:48:19;3.93;;;2.47;;
56770;SDS011;42641;59.794;17.616;2024-01-25T04:50:45;2.93;;;2.20;;
56770;SDS011;42641;59.794;17.616;2024-01-25T04:53:11;3.40;;;2.40;;
56770;SDS011;42641;59.794;17.616;2024-01-25T04:55:38;4.20;;;2.37;;
56770;SDS011;42641;59.794;17.616;2024-01-25T04:58:04;3.63;;;2.30;;
56770;SDS011;42641;59.794;17.616;2024-01-25T05:00:31;3.80;;;2.50;;
56770;SDS011;42641;59.794;17.616;2024-01-25T05:02:57;4.10;;;2.43;;
56770;SDS011;42641;59.794;17.616;2024-01-25T05:05:24;4.20;;;3.00;;
56770;SDS011;42641;59.794;17.616;2024-01-25T05:07:50;3.47;;;2.30;;
56770;SDS011;42641;59.794;17.616;2024-01-25T05:10:17;2.00;;;1.80;;
56770;SDS011;42641;59.794;17.616;2024-01-25T05:12:43;2.20;;;1.70;;
56770;SDS011;42641;59.794;17.616;2024-01-25T05:15:12;5.60;;;2.07;;
56770;SDS011;42641;59.794;17.616;2024-01-25T05:17:39;3.07;;;1.90;;
56770;SDS011;42641;59.794;17.616;2024-01-25T05:20:06;2.63;;;2.13;;
56770;SDS011;42641;59.794;17.616;2024-01-25T05:22:33;3.03;;;2.60;;
56770;SDS011;42641;59.794;17.616;2024-01-25T05:25:06;2.20;;;2.00;;
56770;SDS011;42641;59.794;17.616;2024-01-25T05:27:34;1.87;;;1.77;;
56770;SDS011;42641;59.794;17.616;2024-01-25T05:30:00;2.10;;;1.70;;
56770;SDS011;42641;59.794;17.616;2024-01-25T05:32:27;1.60;;;1.50;;
56770;SDS011;42641;59.794;17.616;2024-01-25T05:34:54;1.60;;;1.50;;
56770;SDS011;42641;59.794;17.616;2024-01-25T05:37:20;2.10;;;1.40;;
56770;SDS011;42641;59.794;17.616;2024-01-25T05:39:47;1.93;;;1.50;;
56770;SDS011;42641;59.794;17.616;2024-01-25T05:42:13;2.37;;;1.50;;
56770;SDS011;42641;59.794;17.616;2024-01-25T05:44:40;1.50;;;1.40;;
56770;SDS011;42641;59.794;17.616;2024-01-25T05:47:06;1.67;;;1.17;;
56770;SDS011;42641;59.794;17.616;2024-01-25T05:49:33;1.60;;;1.40;;
56770;SDS011;42641;59.794;17.616;2024-01-25T05:51:59;2.33;;;1.20;;
56770;SDS011;42641;59.794;17.616;2024-01-25T05:54:26;2.30;;;1.50;;
56770;SDS011;42641;59.794;17.616;2024-01-25T05:56:52;1.43;;;1.30;;
56770;SDS011;42641;59.794;17.616;2024-01-25T05:59:19;2.13;;;1.40;;
56770;SDS011;42641;59.794;17.616;2024-01-25T06:01:45;1.23;;;1.13;;
56770;SDS011;42641;59.794;17.616;2024-01-25T06:04:13;2.43;;;1.40;;
56770;SDS011;42641;59.794;17.616;2024-01-25T06:06:45;1.60;;;1.50;;
56770;SDS011;42641;59.794;17.616;2024-01-25T06:09:12;1.40;;;1.30;;
56770;SDS011;42641;59.794;17.616;2024-01-25T06:11:41;1.40;;;1.30;;
56770;SDS011;42641;59.794;17.616;2024-01-25T06:14:08;1.80;;;1.40;;
56770;SDS011;42641;59.794;17.616;2024-01-25T06:16:35;1.97;;;1.40;;
56770;SDS011;42641;59.794;17.616;2024-01-25T06:19:02;1.97;;;1.50;;
56770;SDS011;42641;59.794;17.616;2024-01-25T06:21:29;1.97;;;1.70;;
56770;SDS011;42641;59.794;17.616;2024-01-25T06:23:55;2.23;;;1.27;;
56770;SDS011;42641;59.794;17.616;2024-01-25T06:26:22;1.40;;;1.30;;
56770;SDS011;42641;59.794;17.616;2024-01-25T06:28:48;2.77;;;1.40;;
56770;SDS011;42641;59.794;17.616;2024-01-25T06:31:15;1.73;;;1.40;;
56770;SDS011;42641;59.794;17.616;2024-01-25T06:33:41;1.43;;;1.33;;
56770;SDS011;42641;59.794;17.616;2024-01-25T06:36:08;1.67;;;1.40;;
56770;SDS011;42641;59.794;17.616;2024-01-25T06:38:35;2.83;;;1.20;;
56770;SDS011;42641;59.794;17.616;2024-01-25T06:41:01;2.80;;;1.20;;
56770;SDS011;42641;59.794;17.616;2024-01-25T06:43:28;1.93;;;1.10;;
56770;SDS011;42641;59.794;17.616;2024-01-25T06:45:55;1.93;;;1.53;;
56770;SDS011;42641;59.794;17.616;2024-01-25T06:48:21;1.53;;;1.30;;
56770;SDS011;42641;59.794;17.616;2024-01-25T06:50:48;1.63;;;1.50;;
56770;SDS011;42641;59.794;17.616;2024-01-25T06:53:16;1.60;;;1.50;;
56770;SDS011;42641;59.794;17.616;2024-01-25T06:55:43;1.50;;;1.40;;
56770;SDS011;42641;59.794;17.616;2024-01-25T06:58:09;2.83;;;1.63;;
56770;SDS011;42641;59.794;17.616;2024-01-25T07:00:35;1.90;;;1.70;;
56770;SDS011;42641;59.794;17.616;2024-01-25T07:03:04;2.17;;;1.70;;
56770;SDS011;42641;59.794;17.616;2024-01-25T07:05:31;2.67;;;1.70;;
56770;SDS011;42641;59.794;17.616;2024-01-25T07:07:59;2.37;;;1.60;;
56770;SDS011;42641;59.794;17.616;2024-01-25T07:10:26;1.60;;;1.50;;
56770;SDS011;42641;59.794;17.616;2024-01-25T07:12:52;2.00;;;1.80;;
56770;SDS011;42641;59.794;17.616;2024-01-25T07:15:20;2.30;;;1.90;;
56770;SDS011;42641;59.794;17.616;2024-01-25T07:17:46;2.27;;;1.90;;
56770;SDS011;42641;59.794;17.616;2024-01-25T07:20:13;3.50;;;2.03;;
56770;SDS011;42641;59.794;17.616;2024-01-25T07:22:39;2.40;;;2.00;;
56770;SDS011;42641;59.794;17.616;2024-01-25T07:25:06;2.87;;;2.20;;
56770;SDS011;42641;59.794;17.616;2024-01-25T07:27:32;2.97;;;2.40;;
56770;SDS011;42641;59.794;17.616;2024-01-25T07:29:59;3.37;;;2.20;;
56770;SDS011;42641;59.794;17.616;2024-01-25T07:32:25;3.20;;;2.33;;
56770;SDS011;42641;59.794;17.616;2024-01-25T07:34:52;3.20;;;2.30;;
56770;SDS011;42641;59.794;17.616;2024-01-25T07:37:19;2.50;;;2.10;;
56770;SDS011;42641;59.794;17.616;2024-01-25T07:39:46;2.67;;;2.30;;
56770;SDS011;42641;59.794;17.616;2024-01-25T07:42:12;2.37;;;2.17;;
56770;SDS011;42641;59.794;17.616;2024-01-25T07:44:39;4.70;;;2.53;;
56770;SDS011;42641;59.794;17.616;2024-01-25T07:47:05;3.93;;;2.73;;
56770;SDS011;42641;59.794;17.616;2024-01-25T07:49:31;5.33;;;2.63;;
56770;SDS011;42641;59.794;17.616;2024-01-25T07:51:58;3.63;;;3.00;;
56770;SDS011;42641;59.794;17.616;2024-01-25T07:54:24;3.47;;;2.87;;
56770;SDS011;42641;59.794;17.616;2024-01-25T07:56:51;4.03;;;2.60;;
56770;SDS011;42641;59.794;17.616;2024-01-25T07:59:17;3.00;;;2.67;;
56770;SDS011;42641;59.794;17.616;2024-01-25T08:01:43;4.50;;;2.73;;
56770;SDS011;42641;59.794;17.616;2024-01-25T08:04:10;4.57;;;2.80;;
56770;SDS011;42641;59.794;17.616;2024-01-25T08:06:36;4.30;;;2.80;;
56770;SDS011;42641;59.794;17.616;2024-01-25T08:09:02;5.20;;;3.10;;
56770;SDS011;42641;59.794;17.616;2024-01-25T08:11:29;3.60;;;2.90;;
56770;SDS011;42641;59.794;17.616;2024-01-25T08:13:55;3.57;;;3.20;;
56770;SDS011;42641;59.794;17.616;2024-01-25T08:16:23;4.73;;;3.13;;
56770;SDS011;42641;59.794;17.616;2024-01-25T08:18:49;3.97;;;3.23;;
56770;SDS011;42641;59.794;17.616;2024-01-25T08:21:15;4.17;;;2.90;;
56770;SDS011;42641;59.794;17.616;2024-01-25T08:23:42;2.77;;;2.30;;
56770;SDS011;42641;59.794;17.616;2024-01-25T08:26:08;5.40;;;3.23;;
56770;SDS011;42641;59.794;17.616;2024-01-25T08:28:35;5.60;;;3.17;;
56770;SDS011;42641;59.794;17.616;2024-01-25T08:31:02;3.97;;;2.70;;
56770;SDS011;42641;59.794;17.616;2024-01-25T08:33:28;4.63;;;2.50;;
56770;SDS011;42641;59.794;17.616;2024-01-25T08:35:55;3.43;;;2.70;;
56770;SDS011;42641;59.794;17.616;2024-01-25T08:38:21;4.37;;;2.60;;
56770;SDS011;42641;59.794;17.616;2024-01-25T08:40:47;2.80;;;2.50;;
56770;SDS011;42641;59.794;17.616;2024-01-25T08:43:14;6.37;;;2.50;;
56770;SDS011;42641;59.794;17.616;2024-01-25T08:45:40;3.20;;;2.37;;
56770;SDS011;42641;59.794;17.616;2024-01-25T08:48:07;2.80;;;2.10;;
56770;SDS011;42641;59.794;17.616;2024-01-25T08:50:35;3.40;;;2.57;;
56770;SDS011;42641;59.794;17.616;2024-01-25T08:53:01;2.33;;;2.13;;
56770;SDS011;42641;59.794;17.616;2024-01-25T08:55:28;3.60;;;2.70;;
56770;SDS011;42641;59.794;17.616;2024-01-25T08:57:54;2.50;;;2.13;;
56770;SDS011;42641;59.794;17.616;2024-01-25T09:00:21;2.40;;;2.20;;
56770;SDS011;42641;59.794;17.616;2024-01-25T09:02:47;2.13;;;2.00;;
56770;SDS011;42641;59.794;17.616;2024-01-25T09:05:14;2.33;;;1.97;;
56770;SDS011;42641;59.794;17.616;2024-01-25T09:07:40;2.50;;;2.03;;
56770;SDS011;42641;59.794;17.616;2024-01-25T09:10:07;3.33;;;2.07;;
56770;SDS011;42641;59.794;17.616;2024-01-25T09:12:35;2.00;;;1.80;;
56770;SDS011;42641;59.794;17.616;2024-01-25T09:15:01;2.10;;;1.60;;
56770;SDS011;42641;59.794;17.616;2024-01-25T09:17:29;2.90;;;1.97;;
56770;SDS011;42641;59.794;17.616;2024-01-25T09:19:56;1.73;;;1.40;;
56770;SDS011;42641;59.794;17.616;2024-01-25T09:22:24;1.70;;;1.60;;
56770;SDS011;42641;59.794;17.616;2024-01-25T09:24:51;1.77;;;1.63;;
56770;SDS011;42641;59.794;17.616;2024-01-25T09:27:18;3.47;;;1.40;;
56770;SDS011;42641;59.794;17.616;2024-01-25T09:29:45;1.87;;;1.67;;
56770;SDS011;42641;59.794;17.616;2024-01-25T09:32:11;1.97;;;1.60;;
56770;SDS011;42641;59.794;17.616;2024-01-25T09:34:38;3.50;;;1.80;;
56770;SDS011;42641;59.794;17.616;2024-01-25T09:37:04;2.70;;;1.60;;
56770;SDS011;42641;59.794;17.616;2024-01-25T09:39:31;1.73;;;1.40;;
56770;SDS011;42641;59.794;17.616;2024-01-25T09:41:58;2.53;;;1.70;;
56770;SDS011;42641;59.794;17.616;2024-01-25T09:44:24;1.67;;;1.30;;
56770;SDS011;42641;59.794;17.616;2024-01-25T09:46:51;2.83;;;1.27;;
56770;SDS011;42641;59.794;17.616;2024-01-25T09:49:17;1.63;;;1.23;;
56770;SDS011;42641;59.794;17.616;2024-01-25T09:51:44;1.37;;;1.13;;
56770;SDS011;42641;59.794;17.616;2024-01-25T09:54:11;1.77;;;1.57;;
56770;SDS011;42641;59.794;17.616;2024-01-25T09:56:39;1.60;;;1.47;;
56770;SDS011;42641;59.794;17.616;2024-01-25T09:59:08;2.03;;;1.50;;
56770;SDS011;42641;59.794;17.616;2024-01-25T10:01:34;2.00;;;1.27;;
56770;SDS011;42641;59.794;17.616;2024-01-25T10:04:01;2.30;;;1.87;;
56770;SDS011;42641;59.794;17.616;2024-01-25T10:06:30;1.63;;;1.43;;
56770;SDS011;42641;59.794;17.616;2024-01-25T10:08:56;1.57;;;1.43;;
56770;SDS011;42641;59.794;17.616;2024-01-25T10:11:24;2.83;;;1.37;;
56770;SDS011;42641;59.794;17.616;2024-01-25T10:13:50;0.80;;;0.80;;
56770;SDS011;42641;59.794;17.616;2024-01-25T10:16:18;1.47;;;1.10;;
56770;SDS011;42641;59.794;17.616;2024-01-25T10:18:46;2.60;;;1.20;;
56770;SDS011;42641;59.794;17.616;2024-01-25T10:21:13;1.40;;;1.20;;
56770;SDS011;42641;59.794;17.616;2024-01-25T10:23:40;2.70;;;1.43;;
56770;SDS011;42641;59.794;17.616;2024-01-25T10:26:09;1.57;;;1.20;;
56770;SDS011;42641;59.794;17.616;2024-01-25T10:28:36;1.20;;;1.10;;
56770;SDS011;42641;59.794;17.616;2024-01-25T10:31:03;1.67;;;1.20;;
56770;SDS011;42641;59.794;17.616;2024-01-25T10:33:30;2.60;;;1.10;;
56770;SDS011;42641;59.794;17.616;2024-01-25T10:35:57;1.97;;;1.00;;
56770;SDS011;42641;59.794;17.616;2024-01-25T10:38:33;1.20;;;1.10;;
56770;SDS011;42641;59.794;17.616;2024-01-25T10:41:02;1.47;;;1.33;;
56770;SDS011;42641;59.794;17.616;2024-01-25T10:43:29;1.53;;;1.10;;
56770;SDS011;42641;59.794;17.616;2024-01-25T10:45:59;1.10;;;1.00;;
56770;SDS011;42641;59.794;17.616;2024-01-25T10:48:26;1.33;;;1.00;;
56770;SDS011;42641;59.794;17.616;2024-01-25T10:50:54;1.07;;;0.90;;
56770;SDS011;42641;59.794;17.616;2024-01-25T10:53:21;1.43;;;1.10;;
56770;SDS011;42641;59.794;17.616;2024-01-25T10:55:50;0.80;;;0.80;;
56770;SDS011;42641;59.794;17.616;2024-01-25T10:58:17;1.10;;;1.00;;
56770;SDS011;42641;59.794;17.616;2024-01-25T11:00:55;1.63;;;1.27;;
56770;SDS011;42641;59.794;17.616;2024-01-25T11:03:27;1.13;;;1.00;;
56770;SDS011;42641;59.794;17.616;2024-01-25T11:05:54;2.07;;;1.17;;
56770;SDS011;42641;59.794;17.616;2024-01-25T11:08:30;2.33;;;1.23;;
56770;SDS011;42641;59.794;17.616;2024-01-25T11:10:57;2.13;;;1.03;;
56770;SDS011;42641;59.794;17.616;2024-01-25T11:13:25;2.30;;;1.20;;
56770;SDS011;42641;59.794;17.616;2024-01-25T11:15:52;1.00;;;0.90;;
56770;SDS011;42641;59.794;17.616;2024-01-25T11:18:19;1.70;;;1.00;;
56770;SDS011;42641;59.794;17.616;2024-01-25T11:20:49;2.47;;;1.13;;
56770;SDS011;42641;59.794;17.616;2024-01-25T11:23:15;1.70;;;1.10;;
56770;SDS011;42641;59.794;17.616;2024-01-25T11:25:46;1.73;;;1.10;;
56770;SDS011;42641;59.794;17.616;2024-01-25T11:28:14;1.00;;;0.87;;
56770;SDS011;42641;59.794;17.616;2024-01-25T11:30:45;1.03;;;0.93;;
56770;SDS011;42641;59.794;17.616;2024-01-25T11:33:13;2.03;;;1.07;;
56770;SDS011;42641;59.794;17.616;2024-01-25T11:35:40;1.00;;;1.00;;
56770;SDS011;42641;59.794;17.616;2024-01-25T11:38:08;1.40;;;1.30;;
56770;SDS011;42641;59.794;17.616;2024-01-25T11:40:35;1.40;;;1.00;;
56770;SDS011;42641;59.794;17.616;2024-01-25T11:43:01;1.17;;;0.87;;
56770;SDS011;42641;59.794;17.616;2024-01-25T11:45:32;2.03;;;0.80;;
56770;SDS011;42641;59.794;17.616;2024-01-25T11:47:59;1.57;;;1.07;;
56770;SDS011;42641;59.794;17.616;2024-01-25T11:50:26;1.63;;;0.90;;
56770;SDS011;42641;59.794;17.616;2024-01-25T11:52:52;2.83;;;1.20;;
56770;SDS011;42641;59.794;17.616;2024-01-25T11:55:19;1.13;;;1.00;;
56770;SDS011;42641;59.794;17.616;2024-01-25T11:57:46;1.10;;;0.90;;
56770;SDS011;42641;59.794;17.616;2024-01-25T12:00:13;1.40;;;1.00;;
56770;SDS011;42641;59.794;17.616;2024-01-25T12:02:41;2.63;;;1.10;;
56770;SDS011;42641;59.794;17.616;2024-01-25T12:05:09;1.80;;;1.10;;
56770;SDS011;42641;59.794;17.616;2024-01-25T12:07:38;2.23;;;1.17;;
56770;SDS011;42641;59.794;17.616;2024-01-25T12:10:06;0.93;;;0.90;;
56770;SDS011;42641;59.794;17.616;2024-01-25T12:12:37;1.90;;;1.10;;
56770;SDS011;42641;59.794;17.616;2024-01-25T12:15:04;1.20;;;1.00;;
56770;SDS011;42641;59.794;17.616;2024-01-25T12:17:32;1.97;;;1.10;;
56770;SDS011;42641;59.794;17.616;2024-01-25T12:19:59;1.70;;;1.17;;
56770;SDS011;42641;59.794;17.616;2024-01-25T12:22:29;1.07;;;1.00;;
56770;SDS011;42641;59.794;17.616;2024-01-25T12:24:56;1.17;;;1.07;;
56770;SDS011;42641;59.794;17.616;2024-01-25T12:27:23;2.27;;;1.00;;
56770;SDS011;42641;59.794;17.616;2024-01-25T12:29:52;3.90;;;1.20;;
56770;SDS011;42641;59.794;17.616;2024-01-25T12:32:22;0.80;;;0.80;;
56770;SDS011;42641;59.794;17.616;2024-01-25T12:37:26;1.47;;;1.03;;
56770;SDS011;42641;59.794;17.616;2024-01-25T12:39:53;0.97;;;0.73;;
56770;SDS011;42641;59.794;17.616;2024-01-25T12:42:20;2.73;;;0.93;;
56770;SDS011;42641;59.794;17.616;2024-01-25T12:44:47;0.80;;;0.73;;
56770;SDS011;42641;59.794;17.616;2024-01-25T12:47:20;0.83;;;0.70;;
56770;SDS011;42641;59.794;17.616;2024-01-25T12:49:46;0.73;;;0.73;;
56770;SDS011;42641;59.794;17.616;2024-01-25T12:52:14;1.33;;;0.67;;
56770;SDS011;42641;59.794;17.616;2024-01-25T12:54:41;0.70;;;0.70;;
56770;SDS011;42641;59.794;17.616;2024-01-25T12:57:07;1.07;;;0.77;;
56770;SDS011;42641;59.794;17.616;2024-01-25T12:59:34;0.80;;;0.80;;
56770;SDS011;42641;59.794;17.616;2024-01-25T13:02:02;1.13;;;0.80;;
56770;SDS011;42641;59.794;17.616;2024-01-25T13:04:30;1.90;;;0.70;;
56770;SDS011;42641;59.794;17.616;2024-01-25T13:06:57;0.60;;;0.60;;
56770;SDS011;42641;59.794;17.616;2024-01-25T13:09:23;1.60;;;0.73;;
56770;SDS011;42641;59.794;17.616;2024-01-25T13:11:50;0.80;;;0.70;;
56770;SDS011;42641;59.794;17.616;2024-01-25T13:14:18;1.73;;;0.80;;
56770;SDS011;42641;59.794;17.616;2024-01-25T13:16:44;0.90;;;0.70;;
56770;SDS011;42641;59.794;17.616;2024-01-25T13:19:11;1.10;;;0.90;;
56770;SDS011;42641;59.794;17.616;2024-01-25T13:21:37;1.00;;;0.73;;
56770;SDS011;42641;59.794;17.616;2024-01-25T13:24:05;2.13;;;1.10;;
56770;SDS011;42641;59.794;17.616;2024-01-25T13:26:33;1.00;;;0.80;;
56770;SDS011;42641;59.794;17.616;2024-01-25T13:29:01;1.00;;;0.80;;
56770;SDS011;42641;59.794;17.616;2024-01-25T13:31:27;1.10;;;1.00;;
56770;SDS011;42641;59.794;17.616;2024-01-25T13:33:54;1.30;;;0.80;;
56770;SDS011;42641;59.794;17.616;2024-01-25T13:36:20;2.20;;;1.07;;
56770;SDS011;42641;59.794;17.616;2024-01-25T13:38:46;1.60;;;0.90;;
56770;SDS011;42641;59.794;17.616;2024-01-25T13:41:13;0.90;;;0.80;;
56770;SDS011;42641;59.794;17.616;2024-01-25T13:43:39;2.60;;;0.70;;
56770;SDS011;42641;59.794;17.616;2024-01-25T13:46:06;2.70;;;1.00;;
56770;SDS011;42641;59.794;17.616;2024-01-25T13:48:32;1.77;;;0.90;;
56770;SDS011;42641;59.794;17.616;2024-01-25T13:50:59;2.10;;;0.97;;
56770;SDS011;42641;59.794;17.616;2024-01-25T13:53:25;1.07;;;0.70;;
56770;SDS011;42641;59.794;17.616;2024-01-25T13:55:51;0.80;;;0.80;;
56770;SDS011;42641;59.794;17.616;2024-01-25T13:58:18;1.40;;;0.97;;
56770;SDS011;42641;59.794;17.616;2024-01-25T14:00:44;0.73;;;0.60;;
56770;SDS011;42641;59.794;17.616;2024-01-25T14:03:14;1.70;;;0.80;;
56770;SDS011;42641;59.794;17.616;2024-01-25T14:05:42;0.77;;;0.77;;
56770;SDS011;42641;59.794;17.616;2024-01-25T14:08:09;2.53;;;1.00;;
56770;SDS011;42641;59.794;17.616;2024-01-25T14:10:35;1.47;;;1.13;;
56770;SDS011;42641;59.794;17.616;2024-01-25T14:13:02;1.23;;;0.90;;
56770;SDS011;42641;59.794;17.616;2024-01-25T14:15:28;1.10;;;0.90;;
56770;SDS011;42641;59.794;17.616;2024-01-25T14:17:55;1.07;;;0.97;;
56770;SDS011;42641;59.794;17.616;2024-01-25T14:20:21;1.53;;;1.00;;
56770;SDS011;42641;59.794;17.616;2024-01-25T14:22:48;1.10;;;0.87;;
56770;SDS011;42641;59.794;17.616;2024-01-25T14:25:15;0.80;;;0.77;;
56770;SDS011;42641;59.794;17.616;2024-01-25T14:27:41;0.97;;;0.70;;
56770;SDS011;42641;59.794;17.616;2024-01-25T14:30:08;1.20;;;0.80;;
56770;SDS011;42641;59.794;17.616;2024-01-25T14:32:35;0.70;;;0.70;;
56770;SDS011;42641;59.794;17.616;2024-01-25T14:35:01;0.73;;;0.73;;